Latest Coastal Weather Observations for Neptune Island

IDS60701

Issued at 12:55 am CST Wednesday 17 September 2014 (issued every 10 minutes, with the page automatically refreshed every 10 minutes)

About coastal observations | Map of coastal stations | Coastal observations for SA | Marine services | Other Formats
Station Details ID: 018115 Name: NEPTUNE ISLAND Lat: -35.34 Lon: 136.12 Height: 32.0 m
Data from the previous 72 hours. | See also: Recent months at Neptune Island
Date/Time
CST
Temp

°C
Wind Pressure Rain
since 9am
mm
Weather Cloud Vis
km
Sea
Height
m
Swell
Dir
 
Speed
knots
Gust
knots
hPa Trend Height
m
Period
s
Dir
17/12:30am 12.7 WSW 22 26 1019.4 - 0.4 - - - - - - -
17/12:00am 12.9 WSW 18 22 1019.7 - 0.4 - - - - - - -
 
Date/Time
CST
Temp

°C
Wind Pressure Rain
since 9am
mm
Weather Cloud Vis
km
Sea
Height
m
Swell
Dir
 
Speed
knots
Gust
knots
hPa Trend Height
m
Period
s
Dir
16/11:30pm 12.5 WSW 18 21 1019.8 - 0.4 - - - - - - -
16/11:00pm 12.2 WSW 19 23 1019.6 - 0.4 - - - - - - -
16/10:30pm 13.3 WSW 16 20 1019.7 - 0.0 - - - - - - -
16/10:00pm 13.5 WSW 15 18 1019.7 - 0.0 - - - - - - -
16/09:30pm 12.8 WSW 17 20 1019.8 - 0.0 - - - - - - -
16/09:00pm 13.1 WSW 17 20 1019.7 - 0.0 - - - - - - -
16/08:30pm 13.3 WSW 15 18 1019.5 - 0.0 - - - - - - -
16/08:00pm 13.2 SW 14 17 1019.4 - 0.0 - - - - - - -
16/07:30pm 13.1 SW 15 19 1019.1 - 0.0 - - - - - - -
16/07:00pm 13.0 SW 15 19 1018.5 - 0.0 - - - - - - -
16/06:30pm 13.0 SW 14 18 1018.2 - 0.0 - - - - - - -
16/06:00pm 13.2 SSW 18 22 1017.9 - 0.0 - - - - - - -
16/05:30pm 13.4 SSW 17 22 1017.7 - 0.0 - - - - - - -
16/05:00pm 13.6 SW 19 23 1017.5 - 0.0 - - - - - - -
16/04:30pm 14.1 SW 17 21 1017.4 - 0.0 - - - - - - -
16/04:00pm 14.3 SW 18 21 1017.2 - 0.0 - - - - - - -
16/03:30pm 14.5 SW 19 22 1017.0 - 0.0 - - - - - - -
16/03:00pm 14.7 SW 18 22 1017.0 - 0.0 - - - - - - -
16/02:30pm 14.7 SW 20 24 1017.0 - 0.0 - - - - - - -
16/02:00pm 14.7 WSW 18 23 1017.0 - 0.0 - - - - - - -
16/01:30pm 14.8 WSW 19 23 1017.1 - 0.0 - - - - - - -
16/01:00pm 14.6 SW 20 25 1017.2 - 0.0 - - - - - - -
16/12:30pm 14.6 SW 18 22 1017.5 - 0.0 - - - - - - -
16/12:00pm 14.9 SW 20 23 1017.7 - 0.0 - - - - - - -
16/11:30am 14.7 SW 19 22 1018.0 - 0.0 - - - - - - -
16/11:00am 14.8 SW 19 21 1018.4 - 0.0 - - - - - - -
16/10:30am 14.3 SW 19 22 1018.2 - 0.0 - - - - - - -
16/10:00am 13.8 SW 21 26 1018.2 - 0.0 - - - - - - -
16/09:30am 14.2 SW 19 23 1018.2 - 0.0 - - - - - - -
16/09:00am 14.2 WSW 17 21 1018.2 - 0.4 - - - - - - -
16/08:30am 13.9 WSW 14 16 1018.2 - 0.4 - - - - - - -
16/08:00am 13.2 WSW 16 22 1018.1 - 0.4 - - - - - - -
16/07:30am 13.0 W 13 19 1018.0 - 0.0 - - - - - - -
16/07:00am 14.0 WSW 16 19 1017.8 - 0.0 - - - - - - -
16/06:30am 13.7 WSW 15 17 1017.7 - 0.0 - - - - - - -
16/06:00am 13.4 WSW 17 19 1017.5 - 0.0 - - - - - - -
16/05:30am 13.5 WSW 17 20 1017.3 - 0.0 - - - - - - -
16/05:00am 13.5 SW 18 22 1017.2 - 0.0 - - - - - - -
16/04:30am 13.6 SW 19 22 1017.1 - 0.0 - - - - - - -
16/04:00am 13.6 WSW 18 21 1017.1 - 0.0 - - - - - - -
16/03:30am 13.7 WSW 17 19 1017.0 - 0.0 - - - - - - -
16/03:00am 13.6 WSW 17 20 1017.0 - 0.0 - - - - - - -
16/02:30am 13.8 SW 15 17 1017.2 - 0.0 - - - - - - -
16/02:00am 13.7 SW 14 16 1017.3 - 0.0 - - - - - - -
16/01:30am 13.7 SW 13 16 1017.6 - 0.0 - - - - - - -
16/01:00am 13.8 SSW 13 15 1017.9 - 0.0 - - - - - - -
16/12:30am 13.7 SW 13 16 1018.0 - 0.0 - - - - - - -
16/12:00am 13.6 SW 15 17 1018.1 - 0.0 - - - - - - -
 
Date/Time
CST
Temp

°C
Wind Pressure Rain
since 9am
mm
Weather Cloud Vis
km
Sea
Height
m
Swell
Dir
 
Speed
knots
Gust
knots
hPa Trend Height
m
Period
s
Dir
15/11:30pm 13.7 SSW 14 17 1018.2 - 0.0 - - - - - - -
15/11:00pm 13.8 SW 13 15 1018.4 - 0.0 - - - - - - -
15/10:30pm 13.9 SW 13 16 1018.4 - 0.0 - - - - - - -
15/10:00pm 13.9 SSW 13 15 1018.8 - 0.0 - - - - - - -
15/09:30pm 14.1 SW 13 17 1018.8 - 0.0 - - - - - - -
15/09:00pm 13.9 SW 15 17 1018.7 - 0.0 - - - - - - -
15/08:30pm 14.1 SW 15 18 1018.5 - 0.0 - - - - - - -
15/08:00pm 14.0 SSW 15 17 1018.3 - 0.0 - - - - - - -
15/07:30pm 14.3 SSW 14 17 1018.1 - 0.0 - - - - - - -
15/07:00pm 14.2 SSW 16 19 1017.9 - 0.0 - - - - - - -
15/06:30pm 14.3 SSW 17 21 1017.6 - 0.0 - - - - - - -
15/06:00pm 14.5 SSW 17 22 1017.3 - 0.0 - - - - - - -
15/05:30pm 14.8 SSW 17 21 1017.0 - 0.0 - - - - - - -
15/05:00pm 15.5 SSW 17 20 1016.7 - 0.0 - - - - - - -
15/04:30pm 15.8 SSW 18 23 1016.5 - 0.0 - - - - - - -
15/04:00pm 15.5 SSW 18 22 1016.3 - 0.0 - - - - - - -
15/03:30pm 16.2 SSW 18 21 1016.1 - 0.0 - - - - - - -
15/03:00pm 15.8 SSW 20 23 1016.2 - 0.0 - - - - - - -
15/02:30pm 16.1 SSW 20 24 1016.1 - 0.0 - - - - - - -
15/02:00pm 16.4 SSW 20 25 1016.0 - 0.0 - - - - - - -
15/01:30pm 16.2 SSW 20 25 1015.9 - 0.0 - - - - - - -
15/01:00pm 15.8 SSW 21 26 1016.0 - 0.0 - - - - - - -
15/12:30pm 15.8 SSW 23 26 1016.0 - 0.0 - - - - - - -
15/12:00pm 15.9 SSW 22 26 1015.9 - 0.0 - - - - - - -
15/11:30am 15.8 SSW 21 25 1015.8 - 0.0 - - - - - - -
15/11:00am 15.7 SSW 22 27 1015.8 - 0.0 - - - - - - -
15/10:30am 15.3 SSW 24 28 1015.5 - 0.0 - - - - - - -
15/10:00am 15.5 SSW 24 28 1015.3 - 0.0 - - - - - - -
15/09:30am 15.2 SSW 22 27 1015.2 - 0.0 - - - - - - -
15/09:00am 14.9 SSW 23 29 1014.8 - 0.0 - - - - - - -
15/08:30am 14.8 SSW 25 29 1014.4 - 0.0 - - - - - - -
15/08:00am 14.6 SSW 25 31 1014.1 - 0.0 - - - - - - -
15/07:30am 14.6 SSW 27 33 1013.6 - 0.0 - - - - - - -
15/07:00am 14.6 S 25 31 1013.0 - 0.0 - - - - - - -
15/06:30am 14.3 S 27 31 1012.4 - 0.0 - - - - - - -
15/06:00am 14.4 SSW 27 34 1012.1 - 0.0 - - - - - - -
15/05:30am 14.5 S 26 32 1011.6 - 0.0 - - - - - - -
15/05:00am 14.4 S 29 34 1011.2 - 0.0 - - - - - - -
15/04:30am 14.4 S 28 35 1010.7 - 0.0 - - - - - - -
15/04:00am 14.5 S 27 31 1010.5 - 0.0 - - - - - - -
15/03:30am 14.6 S 26 31 1010.2 - 0.0 - - - - - - -
15/03:00am 14.7 S 23 28 1010.1 - 0.0 - - - - - - -
15/02:30am 14.8 S 21 25 1009.8 - 0.0 - - - - - - -
15/02:00am 14.7 S 16 20 1009.9 - 0.0 - - - - - - -
15/01:30am 14.3 SSW 13 18 1009.9 - 0.0 - - - - - - -
15/01:00am 14.2 S 7 9 1010.0 - 0.0 - - - - - - -
15/12:30am 14.6 S 7 9 1010.1 - 0.0 - - - - - - -
15/12:00am 14.6 SSW 8 9 1010.3 - 0.0 - - - - - - -
 
Date/Time
CST
Temp

°C
Wind Pressure Rain
since 9am
mm
Weather Cloud Vis
km
Sea
Height
m
Swell
Dir
 
Speed
knots
Gust
knots
hPa Trend Height
m
Period
s
Dir
14/11:30pm 15.1 W 13 14 1010.3 - 0.0 - - - - - - -
14/11:00pm 15.0 W 12 14 1010.7 - 0.0 - - - - - - -
14/10:30pm 15.0 WNW 12 15 1010.8 - 0.0 - - - - - - -
14/10:00pm 15.0 NW 13 16 1010.9 - 0.0 - - - - - - -
14/09:30pm 15.1 NW 13 15 1011.0 - 0.0 - - - - - - -
14/09:00pm 15.2 WNW 14 16 1011.3 - 0.0 - - - - - - -
14/08:30pm 15.3 WNW 14 16 1011.3 - 0.0 - - - - - - -
14/08:00pm 15.5 WNW 11 15 1011.2 - 0.0 - - - - - - -
14/07:30pm 15.0 N 10 11 1011.3 - 0.0 - - - - - - -
14/07:00pm 15.3 NE 13 17 1010.9 - 0.0 - - - - - - -
14/06:30pm 15.3 ENE 15 19 1010.6 - 0.0 - - - - - - -
14/06:00pm 15.5 E 17 22 1010.5 - 0.0 - - - - - - -
14/05:30pm 15.8 E 21 25 1010.3 - 0.0 - - - - - - -
14/05:00pm 15.9 E 22 27 1010.3 - 0.0 - - - - - - -
14/04:30pm 16.0 E 24 28 1010.2 - 0.0 - - - - - - -
14/04:00pm 16.4 E 24 29 1010.3 - 0.0 - - - - - - -
14/03:30pm 16.4 E 24 29 1010.6 - 0.0 - - - - - - -
14/03:00pm 17.0 E 21 28 1011.1 - 0.0 - - - - - - -
14/02:36pm 16.7 E 26 36 1011.0 - 0.0 - - - - - - -
14/02:30pm 16.6 E 28 36 1010.8 - 0.0 - - - - - - -
14/02:00pm 16.3 E 31 36 1011.0 - 0.0 - - - - - - -
14/01:30pm 16.6 E 27 33 1011.8 - 0.0 - - - - - - -
14/01:00pm 16.6 E 28 33 1012.3 - 0.0 - - - - - - -
14/12:46pm 16.0 E 29 39 1012.1 - 0.0 - - - - - - -
14/12:30pm 16.2 E 28 35 1012.5 - 0.0 - - - - - - -
14/12:00pm 16.6 E 27 33 1013.4 - 0.0 - - - - - - -
14/11:30am 16.2 ENE 28 33 1013.9 - 0.0 - - - - - - -
14/11:00am 16.3 ENE 26 30 1014.7 - 0.0 - - - - - - -
14/10:30am 16.1 ENE 24 28 1015.3 - 0.0 - - - - - - -
14/10:00am 15.7 ENE 23 28 1015.9 - 0.0 - - - - - - -
14/09:30am 14.7 E 22 26 1016.3 - 0.0 - - - - - - -
14/09:00am 14.5 E 22 26 1016.6 - 0.0 - - - - - - -
14/08:30am 14.5 E 21 25 1016.7 - 0.0 - - - - - - -
14/08:00am 14.2 E 21 25 1016.9 - 0.0 - - - - - - -
14/07:30am 13.9 E 19 23 1017.0 - 0.0 - - - - - - -
14/07:00am 13.6 E 17 20 1017.8 - 0.0 - - - - - - -
14/06:30am 14.0 ESE 15 19 1018.0 - 0.0 - - - - - - -
14/06:00am 13.6 E 17 22 1017.5 - 0.0 - - - - - - -
14/05:30am 13.3 E 20 25 1016.5 - 0.0 - - - - - - -
14/05:00am 13.3 E 19 23 1016.6 - 0.0 - - - - - - -
14/04:30am 13.3 ESE 17 19 1017.6 - 0.0 - - - - - - -
14/04:00am 13.3 ESE 16 19 1018.0 - 0.0 - - - - - - -
14/03:30am 13.2 E 16 20 1017.8 - 0.0 - - - - - - -
14/03:00am 13.3 E 16 19 1017.9 - 0.0 - - - - - - -
14/02:30am 13.3 E 19 22 1018.2 - 0.0 - - - - - - -
14/02:00am 13.2 E 19 23 1018.4 - 0.0 - - - - - - -
14/01:30am 13.3 E 17 20 1019.4 - 0.0 - - - - - - -
14/01:00am 13.4 E 15 19 1019.6 - 0.0 - - - - - - -

Other Formats:

Comma delimited format used in spreadsheet applications
http://www.bom.gov.au/fwo/IDS60701/IDS60701.94804.axf

JavaScript Object Notation format (JSON) in row-major order
http://www.bom.gov.au/fwo/IDS60701/IDS60701.94804.json